createdAt,value
2022-09-20T00:01:32.205Z,3.22
2022-09-20T00:04:00.127Z,3.10
2022-09-20T00:06:28.497Z,3.15
2022-09-20T00:08:55.410Z,2.90
2022-09-20T00:11:23.688Z,2.90
2022-09-20T00:13:52.938Z,3.17
2022-09-20T00:16:24.720Z,2.53
2022-09-20T00:18:55.586Z,2.40
2022-09-20T00:21:24.224Z,2.90
2022-09-20T00:23:51.828Z,2.58
2022-09-20T00:26:18.497Z,2.67
2022-09-20T00:28:46.903Z,3.05
2022-09-20T00:31:13.743Z,2.63
2022-09-20T00:33:58.857Z,2.92
2022-09-20T00:36:27.146Z,3.28
2022-09-20T00:38:57.673Z,3.47
2022-09-20T00:41:24.340Z,2.83
2022-09-20T00:43:51.070Z,3.35
2022-09-20T00:46:24.843Z,2.85
2022-09-20T00:48:52.986Z,3.15
2022-09-20T00:51:24.208Z,2.90
2022-09-20T00:53:50.845Z,2.92
2022-09-20T00:56:29.640Z,3.20
2022-09-20T00:59:11.328Z,2.95
2022-09-20T01:01:37.917Z,3.13
2022-09-20T01:04:04.884Z,3.28
2022-09-20T01:06:31.623Z,3.00
2022-09-20T01:08:58.777Z,2.83
2022-09-20T01:11:25.616Z,3.17
2022-09-20T01:13:52.244Z,3.53
2022-09-20T01:16:18.916Z,3.33
2022-09-20T01:18:45.515Z,3.30
2022-09-20T01:21:12.094Z,3.67
2022-09-20T01:23:48.020Z,3.88
2022-09-20T01:26:43.936Z,4.15
2022-09-20T01:29:19.164Z,4.13
2022-09-20T01:31:50.165Z,4.20
2022-09-20T01:34:21.294Z,4.10
2022-09-20T01:37:21.715Z,3.80
2022-09-20T01:40:04.290Z,4.15
2022-09-20T01:42:33.510Z,4.70
2022-09-20T01:45:03.175Z,3.63
2022-09-20T01:47:51.886Z,4.53
2022-09-20T01:51:03.194Z,4.22
2022-09-20T01:53:48.305Z,4.00
2022-09-20T01:56:39.273Z,3.67
2022-09-20T01:59:24.233Z,4.20
2022-09-20T02:01:54.287Z,4.82
2022-09-20T02:04:51.826Z,4.63
2022-09-20T02:07:37.878Z,4.97
2022-09-20T02:10:19.596Z,4.60
2022-09-20T02:12:56.374Z,5.55
2022-09-20T02:15:41.916Z,6.00
2022-09-20T02:18:52.824Z,5.65
2022-09-20T02:21:27.794Z,4.95
2022-09-20T02:24:06.057Z,6.03
2022-09-20T02:26:56.675Z,5.93
2022-09-20T02:29:44.947Z,6.70
2022-09-20T02:32:19.170Z,7.25
2022-09-20T02:35:24.296Z,6.63
2022-09-20T02:38:00.872Z,7.40
2022-09-20T02:40:38.342Z,7.53
2022-09-20T02:43:10.945Z,6.90
2022-09-20T02:45:42.971Z,7.55
2022-09-20T02:48:09.685Z,7.32
2022-09-20T02:50:56.154Z,7.82
2022-09-20T02:53:34.668Z,7.63
2022-09-20T02:56:15.124Z,8.27
2022-09-20T02:59:00.013Z,7.50
2022-09-20T03:01:46.425Z,6.43
2022-09-20T03:04:45.296Z,6.32
2022-09-20T03:07:32.460Z,6.05
2022-09-20T03:10:15.117Z,7.68
2022-09-20T03:13:07.375Z,7.32
2022-09-20T03:16:06.830Z,6.85
2022-09-20T03:18:46.827Z,6.63
2022-09-20T03:21:27.808Z,6.55
2022-09-20T03:24:10.343Z,7.47
2022-09-20T03:26:56.706Z,7.97
2022-09-20T03:29:46.563Z,7.82
2022-09-20T03:32:51.308Z,7.80
2022-09-20T03:35:50.364Z,8.13
2022-09-20T03:38:25.656Z,8.75
2022-09-20T03:40:58.742Z,8.35
2022-09-20T03:43:28.433Z,8.73
2022-09-20T03:46:34.663Z,9.73
2022-09-20T03:49:41.791Z,10.00
2022-09-20T03:52:26.888Z,9.23
2022-09-20T03:55:15.745Z,10.30
2022-09-20T03:57:57.331Z,10.27
2022-09-20T04:00:42.655Z,10.18
2022-09-20T04:03:23.568Z,11.77
2022-09-20T04:06:19.693Z,11.45
2022-09-20T04:09:24.128Z,9.93
2022-09-20T04:12:00.405Z,10.50
2022-09-20T04:14:37.074Z,11.02
2022-09-20T04:17:24.933Z,11.75
2022-09-20T04:19:58.005Z,10.38
2022-09-20T04:22:25.167Z,10.70
2022-09-20T04:25:22.428Z,11.25
2022-09-20T04:28:02.034Z,10.30
2022-09-20T04:30:30.180Z,10.50
2022-09-20T04:33:07.235Z,9.75
2022-09-20T04:36:01.497Z,9.45
2022-09-20T04:38:28.261Z,9.52
2022-09-20T04:41:08.530Z,9.15
2022-09-20T04:43:56.304Z,13.15
2022-09-20T04:46:39.059Z,9.90
2022-09-20T04:49:33.773Z,10.25
2022-09-20T04:52:20.104Z,10.07
2022-09-20T04:55:18.637Z,10.15
2022-09-20T04:58:06.188Z,11.55
2022-09-20T05:01:02.049Z,11.38
2022-09-20T05:03:45.917Z,10.10
2022-09-20T05:06:50.704Z,10.27
2022-09-20T05:09:23.137Z,11.30
2022-09-20T05:11:54.410Z,11.15
2022-09-20T05:14:24.633Z,11.07
2022-09-20T05:17:04.360Z,11.23
2022-09-20T05:19:39.523Z,12.47
2022-09-20T05:22:51.310Z,11.88
2022-09-20T05:25:39.923Z,11.75
2022-09-20T05:28:21.732Z,12.30
2022-09-20T05:30:50.267Z,11.35
2022-09-20T05:33:22.170Z,11.32
2022-09-20T05:36:34.450Z,11.10
2022-09-20T05:39:25.137Z,11.55
2022-09-20T05:42:22.985Z,13.30
2022-09-20T05:45:40.179Z,13.43
2022-09-20T05:48:32.203Z,13.05
2022-09-20T05:51:24.809Z,14.93
2022-09-20T05:54:16.239Z,16.05
2022-09-20T05:57:07.448Z,17.08
2022-09-20T06:00:13.377Z,15.52
2022-09-20T06:02:59.779Z,16.50
2022-09-20T06:05:33.344Z,16.38
2022-09-20T06:08:19.109Z,16.95
2022-09-20T06:11:23.606Z,15.73
2022-09-20T06:14:17.465Z,15.02
2022-09-20T06:17:08.260Z,16.33
2022-09-20T06:19:37.638Z,17.02
2022-09-20T06:22:28.129Z,17.10
2022-09-20T06:25:10.006Z,18.50
2022-09-20T06:27:53.823Z,18.15
2022-09-20T06:30:36.813Z,17.95
2022-09-20T06:33:06.527Z,18.88
2022-09-20T06:35:39.382Z,18.73
2022-09-20T06:38:50.232Z,17.50
2022-09-20T06:43:49.850Z,15.65
2022-09-20T06:46:17.326Z,15.07
2022-09-20T06:48:43.925Z,12.25
2022-09-20T06:51:13.098Z,11.40
2022-09-20T06:53:40.224Z,10.43
2022-09-20T06:56:08.760Z,8.90
2022-09-20T06:58:35.402Z,7.90
2022-09-20T07:01:02.035Z,7.43
2022-09-20T07:03:28.701Z,7.53
2022-09-20T07:05:55.276Z,6.78
2022-09-20T07:08:21.857Z,6.82
2022-09-20T07:10:48.413Z,7.10
2022-09-20T07:13:14.990Z,8.00
2022-09-20T07:15:41.545Z,6.80
2022-09-20T07:18:08.215Z,7.20
2022-09-20T07:20:35.390Z,6.80
2022-09-20T07:23:02.567Z,7.05
2022-09-20T07:25:30.016Z,6.38
2022-09-20T07:27:57.259Z,6.45
2022-09-20T07:30:24.016Z,7.07
2022-09-20T07:32:50.626Z,6.63
2022-09-20T07:35:17.216Z,6.80
2022-09-20T07:37:44.233Z,6.63
2022-09-20T07:40:11.206Z,6.15
2022-09-20T07:42:37.902Z,4.72
2022-09-20T07:45:04.878Z,5.05
2022-09-20T07:47:33.004Z,4.28
2022-09-20T07:49:59.630Z,4.05
2022-09-20T07:52:26.243Z,3.78
2022-09-20T07:54:52.979Z,3.63
2022-09-20T07:57:19.637Z,3.88
2022-09-20T07:59:46.378Z,3.65
2022-09-20T08:02:16.207Z,3.10
2022-09-20T08:04:43.193Z,2.85
2022-09-20T08:07:10.017Z,2.90
2022-09-20T08:09:36.581Z,2.83
2022-09-20T08:14:50.057Z,3.03
2022-09-20T08:17:16.649Z,3.40
2022-09-20T08:19:44.492Z,3.05
2022-09-20T08:22:12.482Z,2.83
2022-09-20T08:24:39.449Z,3.20
2022-09-20T08:27:06.096Z,3.17
2022-09-20T08:29:32.784Z,2.72
2022-09-20T08:32:01.351Z,2.90
2022-09-20T08:34:28.015Z,2.63
2022-09-20T08:36:56.456Z,2.40
2022-09-20T08:42:37.889Z,3.13
2022-09-20T08:45:34.441Z,3.40
2022-09-20T08:48:05.762Z,2.65
2022-09-20T08:50:34.490Z,2.50
2022-09-20T08:53:04.921Z,2.25
2022-09-20T08:58:09.185Z,2.13
2022-09-20T09:00:36.330Z,2.37
2022-09-20T09:03:10.340Z,2.50
2022-09-20T09:05:52.647Z,2.20
2022-09-20T09:08:21.248Z,2.00
2022-09-20T09:10:58.606Z,2.25
2022-09-20T09:13:31.317Z,1.88
2022-09-20T09:16:00.358Z,2.45
2022-09-20T09:18:50.496Z,1.90
2022-09-20T09:21:29.426Z,1.92
2022-09-20T09:24:09.334Z,2.38
2022-09-20T09:26:37.911Z,1.73
2022-09-20T09:29:18.558Z,1.85
2022-09-20T09:31:46.681Z,1.90
2022-09-20T09:34:30.185Z,1.83
2022-09-20T09:36:57.456Z,1.50
2022-09-20T09:39:35.388Z,1.65
2022-09-20T09:42:08.106Z,1.80
2022-09-20T09:44:35.465Z,1.35
2022-09-20T09:47:02.215Z,1.92
2022-09-20T09:49:35.803Z,2.00
2022-09-20T09:52:16.062Z,2.05
2022-09-20T09:57:34.514Z,1.60
2022-09-20T10:00:42.876Z,1.45
2022-09-20T10:03:22.213Z,1.60
2022-09-20T10:06:08.606Z,1.20
2022-09-20T10:09:10.153Z,1.20
2022-09-20T10:12:10.008Z,1.25
2022-09-20T10:14:46.858Z,1.30
2022-09-20T10:17:37.325Z,1.10
2022-09-20T10:20:28.035Z,1.10
2022-09-20T10:23:29.861Z,1.38
2022-09-20T10:26:25.960Z,0.93
2022-09-20T10:29:15.644Z,0.93
2022-09-20T10:31:51.617Z,1.00
2022-09-20T10:34:43.035Z,1.23
2022-09-20T10:37:36.714Z,0.80
2022-09-20T10:40:15.435Z,1.25
2022-09-20T10:43:21.352Z,1.23
2022-09-20T10:46:21.063Z,1.02
2022-09-20T10:48:53.908Z,0.88
2022-09-20T10:51:45.941Z,1.10
2022-09-20T10:54:34.085Z,0.70
2022-09-20T10:57:18.101Z,1.40
2022-09-20T10:59:51.170Z,0.80
2022-09-20T11:02:21.718Z,0.98
2022-09-20T11:04:51.834Z,1.10
2022-09-20T11:07:59.017Z,1.00
2022-09-20T11:10:28.752Z,1.33
2022-09-20T11:13:12.487Z,1.30
2022-09-20T11:16:00.722Z,1.00
2022-09-20T11:18:44.917Z,0.90
2022-09-20T11:21:25.993Z,0.85
2022-09-20T11:24:12.359Z,1.13
2022-09-20T11:26:42.249Z,1.13
2022-09-20T11:29:35.781Z,1.00
2022-09-20T11:32:15.508Z,1.35
2022-09-20T11:34:55.408Z,1.08
2022-09-20T11:37:23.007Z,0.90
2022-09-20T11:39:53.530Z,1.00
2022-09-20T11:42:22.577Z,0.93
2022-09-20T11:44:49.302Z,1.00
2022-09-20T11:47:52.606Z,0.95
2022-09-20T11:51:00.272Z,0.80
2022-09-20T11:53:45.311Z,1.20
2022-09-20T11:56:25.094Z,1.20
2022-09-20T11:58:55.986Z,0.82
2022-09-20T12:01:33.855Z,0.85
2022-09-20T12:04:31.141Z,0.70
2022-09-20T12:07:18.396Z,0.80
2022-09-20T12:09:56.643Z,0.70
2022-09-20T12:12:46.983Z,0.90
2022-09-20T12:17:52.503Z,0.75
2022-09-20T12:20:42.421Z,0.93
2022-09-20T12:23:41.473Z,0.65
2022-09-20T12:26:08.024Z,0.95
2022-09-20T12:28:39.361Z,0.93
2022-09-20T12:31:32.148Z,0.60
2022-09-20T12:34:24.653Z,0.65
2022-09-20T12:36:53.923Z,1.15
2022-09-20T12:39:29.758Z,1.20
2022-09-20T12:42:09.868Z,1.30
2022-09-20T12:45:05.258Z,1.47
2022-09-20T12:47:35.639Z,2.10
2022-09-20T12:53:03.872Z,1.63
2022-09-20T12:55:51.496Z,1.55
2022-09-20T12:58:20.980Z,1.20
2022-09-20T13:00:57.576Z,1.70
2022-09-20T13:03:31.890Z,1.80
2022-09-20T13:06:09.498Z,1.58
2022-09-20T13:08:54.178Z,1.50
2022-09-20T13:11:24.782Z,1.10
2022-09-20T13:14:09.317Z,1.50
2022-09-20T13:16:55.539Z,1.38
2022-09-20T13:19:41.955Z,1.13
2022-09-20T13:22:41.945Z,0.90
2022-09-20T13:25:13.247Z,1.00
2022-09-20T13:28:09.624Z,0.90
2022-09-20T13:30:36.410Z,1.30
2022-09-20T13:33:23.180Z,1.15
2022-09-20T13:35:52.356Z,1.33
2022-09-20T13:38:22.590Z,1.40
2022-09-20T13:40:49.148Z,0.85
2022-09-20T13:43:43.449Z,1.10
2022-09-20T13:46:32.973Z,1.02
2022-09-20T13:49:17.588Z,1.10
2022-09-20T13:51:44.297Z,0.85
2022-09-20T13:54:19.221Z,1.02
2022-09-20T13:56:45.811Z,0.80
2022-09-20T13:59:18.493Z,1.10
2022-09-20T14:01:50.329Z,0.85
2022-09-20T14:04:19.186Z,1.13
2022-09-20T14:06:45.756Z,1.05
2022-09-20T14:09:39.312Z,0.80
2022-09-20T14:12:06.133Z,0.98
2022-09-20T14:14:34.153Z,1.30
2022-09-20T14:17:01.812Z,1.05
2022-09-20T14:19:33.052Z,1.42
2022-09-20T14:22:03.038Z,1.10
2022-09-20T14:24:37.256Z,1.35
2022-09-20T14:27:20.900Z,0.82
2022-09-20T14:29:51.829Z,1.08
2022-09-20T14:32:18.389Z,1.15
2022-09-20T14:35:04.943Z,1.35
2022-09-20T14:37:55.074Z,1.13
2022-09-20T14:40:22.769Z,1.10
2022-09-20T14:43:00.179Z,1.10
2022-09-20T14:45:39.618Z,1.20
2022-09-20T14:48:27.168Z,1.00
2022-09-20T14:51:16.079Z,1.08
2022-09-20T14:53:43.481Z,1.00
2022-09-20T14:56:11.727Z,1.30
2022-09-20T14:59:05.417Z,0.88
2022-09-20T15:01:32.384Z,1.00
2022-09-20T15:03:58.953Z,0.85
2022-09-20T15:06:25.653Z,0.88
2022-09-20T15:08:52.221Z,1.40
2022-09-20T15:11:18.852Z,1.50
2022-09-20T15:13:45.489Z,1.05
2022-09-20T15:16:12.631Z,1.35
2022-09-20T15:18:43.009Z,1.15
2022-09-20T15:21:12.757Z,1.50
2022-09-20T15:23:39.638Z,1.10
2022-09-20T15:26:06.658Z,1.00
2022-09-20T15:28:33.674Z,1.30
2022-09-20T15:31:00.307Z,1.13
2022-09-20T15:33:29.569Z,0.80
2022-09-20T15:35:56.168Z,0.93
2022-09-20T15:38:26.647Z,1.38
2022-09-20T15:40:53.677Z,1.20
2022-09-20T15:43:23.906Z,0.90
2022-09-20T15:45:52.076Z,1.27
2022-09-20T15:48:21.314Z,1.25
2022-09-20T15:51:04.538Z,4.45
2022-09-20T15:53:34.090Z,1.10
2022-09-20T15:56:01.757Z,1.33
2022-09-20T15:58:34.876Z,1.48
2022-09-20T16:01:06.770Z,1.58
2022-09-20T16:03:34.476Z,1.00
2022-09-20T16:06:04.394Z,0.90
2022-09-20T16:08:35.830Z,1.02
2022-09-20T16:11:02.667Z,0.80
2022-09-20T16:13:29.318Z,0.80
2022-09-20T16:16:00.282Z,0.90
2022-09-20T16:18:46.205Z,0.90
2022-09-20T16:21:13.904Z,1.15
2022-09-20T16:23:41.179Z,1.00
2022-09-20T16:26:12.981Z,1.33
2022-09-20T16:28:47.037Z,4.65
2022-09-20T16:31:42.177Z,1.35
2022-09-20T16:34:16.975Z,1.10
2022-09-20T16:36:44.263Z,1.40
2022-09-20T16:39:11.645Z,0.95
2022-09-20T16:41:39.495Z,1.25
2022-09-20T16:44:06.299Z,0.95
2022-09-20T16:46:35.040Z,1.23
2022-09-20T16:49:01.720Z,1.25
2022-09-20T16:51:32.246Z,2.40
2022-09-20T16:56:29.569Z,1.23
2022-09-20T16:58:56.305Z,1.30
2022-09-20T17:01:23.121Z,1.35
2022-09-20T17:03:49.800Z,1.25
2022-09-20T17:06:16.533Z,1.30
2022-09-20T17:08:44.702Z,1.73
2022-09-20T17:11:15.161Z,2.47
2022-09-20T17:13:42.650Z,1.63
2022-09-20T17:16:13.784Z,1.20
2022-09-20T17:18:42.692Z,1.95
2022-09-20T17:21:16.487Z,1.30
2022-09-20T17:23:50.051Z,1.92
2022-09-20T17:26:19.935Z,1.92
2022-09-20T17:28:47.565Z,1.90
2022-09-20T17:31:15.814Z,2.00
2022-09-20T17:33:42.435Z,2.08
2022-09-20T17:36:11.574Z,2.40
2022-09-20T17:38:39.258Z,2.03
2022-09-20T17:41:10.504Z,2.88
2022-09-20T17:43:37.408Z,3.88
2022-09-20T17:46:14.177Z,3.58
2022-09-20T17:48:48.924Z,2.97
2022-09-20T17:51:17.021Z,2.83
2022-09-20T17:53:43.654Z,2.53
2022-09-20T17:56:11.276Z,2.90
2022-09-20T17:58:37.917Z,2.65
2022-09-20T18:01:12.577Z,2.15
2022-09-20T18:03:40.693Z,2.20
2022-09-20T18:06:12.182Z,2.22
2022-09-20T18:08:39.355Z,2.33
2022-09-20T18:11:06.076Z,2.22
2022-09-20T18:13:32.788Z,2.30
2022-09-20T18:15:59.572Z,2.25
2022-09-20T18:18:26.460Z,2.25
2022-09-20T18:20:53.028Z,2.35
2022-09-20T18:23:19.611Z,4.00
2022-09-20T18:26:04.721Z,1.95
2022-09-20T18:28:31.740Z,2.10
2022-09-20T18:31:02.690Z,2.33
2022-09-20T18:33:36.946Z,2.38
2022-09-20T18:36:04.846Z,2.92
2022-09-20T18:38:33.075Z,3.33
2022-09-20T18:41:00.895Z,2.05
2022-09-20T18:43:31.586Z,1.45
2022-09-20T18:45:58.335Z,1.88
2022-09-20T18:48:25.861Z,1.55
2022-09-20T18:50:59.600Z,2.17
2022-09-20T18:53:31.041Z,1.75
2022-09-20T18:56:07.194Z,1.90
2022-09-20T18:58:34.166Z,2.05
2022-09-20T19:01:25.842Z,1.80
2022-09-20T19:03:58.619Z,2.30
2022-09-20T19:07:13.129Z,2.10
2022-09-20T19:09:49.650Z,2.00
2022-09-20T19:12:39.323Z,2.40
2022-09-20T19:15:15.563Z,2.50
2022-09-20T19:17:57.864Z,2.25
2022-09-20T19:20:39.844Z,3.35
2022-09-20T19:23:41.095Z,2.63
2022-09-20T19:26:21.779Z,2.80
2022-09-20T19:28:53.044Z,2.45
2022-09-20T19:31:27.569Z,4.60
2022-09-20T19:33:55.310Z,2.80
2022-09-20T19:36:50.055Z,3.20
2022-09-20T19:39:37.037Z,2.72
2022-09-20T19:45:21.915Z,2.40
2022-09-20T19:48:13.146Z,2.70
2022-09-20T19:50:46.222Z,2.60
2022-09-20T19:53:17.407Z,3.10
2022-09-20T19:55:46.227Z,2.90
2022-09-20T19:58:13.754Z,2.92
2022-09-20T20:03:54.051Z,14.15
2022-09-20T20:06:45.223Z,3.72
2022-09-20T20:09:17.553Z,12.90
2022-09-20T20:11:59.630Z,3.60
2022-09-20T20:14:41.212Z,3.63
2022-09-20T20:17:35.980Z,3.25
2022-09-20T20:20:23.366Z,3.88
2022-09-20T20:23:19.152Z,3.50
2022-09-20T20:25:59.990Z,3.90
2022-09-20T20:28:27.382Z,3.92
2022-09-20T20:30:56.670Z,3.47
2022-09-20T20:33:26.781Z,3.65
2022-09-20T20:35:55.582Z,3.70
2022-09-20T20:38:26.156Z,4.65
2022-09-20T20:43:32.363Z,3.95
2022-09-20T20:45:58.972Z,3.97
2022-09-20T20:48:25.592Z,3.78
2022-09-20T20:51:02.808Z,4.38
2022-09-20T20:53:33.073Z,4.10
2022-09-20T20:56:01.504Z,4.28
2022-09-20T20:58:32.386Z,5.28
2022-09-20T21:01:12.858Z,5.30
2022-09-20T21:03:41.022Z,6.10
2022-09-20T21:06:07.809Z,15.13
2022-09-20T21:08:35.257Z,11.43
2022-09-20T21:11:03.670Z,7.22
2022-09-20T21:13:30.273Z,6.20
2022-09-20T21:16:05.120Z,6.10
2022-09-20T21:18:32.796Z,5.70
2022-09-20T21:20:59.889Z,6.50
2022-09-20T21:23:26.785Z,5.97
2022-09-20T21:26:08.268Z,5.60
2022-09-20T21:28:36.751Z,6.15
2022-09-20T21:31:06.723Z,5.93
2022-09-20T21:33:34.569Z,5.97
2022-09-20T21:36:01.410Z,6.20
2022-09-20T21:38:28.705Z,5.88
2022-09-20T21:41:14.234Z,6.10
2022-09-20T21:43:42.564Z,6.20
2022-09-20T21:46:17.596Z,7.15
2022-09-20T21:48:44.594Z,6.82
2022-09-20T21:51:12.852Z,8.00
2022-09-20T21:53:39.997Z,8.48
2022-09-20T21:56:17.428Z,8.93
2022-09-20T21:58:45.119Z,9.10
2022-09-20T22:01:14.027Z,8.73
2022-09-20T22:03:42.170Z,8.68
2022-09-20T22:06:12.669Z,8.15
2022-09-20T22:08:41.320Z,8.75
2022-09-20T22:11:11.194Z,8.93
2022-09-20T22:13:44.109Z,8.02
2022-09-20T22:18:39.269Z,8.02
2022-09-20T22:21:08.163Z,8.65
2022-09-20T22:23:35.160Z,8.80
2022-09-20T22:26:07.032Z,9.57
2022-09-20T22:28:33.745Z,9.27
2022-09-20T22:31:05.173Z,9.60
2022-09-20T22:33:32.606Z,10.93
2022-09-20T22:36:00.782Z,10.07
2022-09-20T22:38:30.599Z,15.10
2022-09-20T22:40:57.606Z,14.95
2022-09-20T22:43:24.538Z,15.23
2022-09-20T22:45:51.217Z,16.02
2022-09-20T22:48:17.806Z,13.75
2022-09-20T22:50:44.493Z,13.10
2022-09-20T22:53:11.214Z,13.60
2022-09-20T22:55:37.814Z,14.50
2022-09-20T22:58:04.364Z,11.20
2022-09-20T23:00:30.945Z,9.85
2022-09-20T23:02:58.823Z,9.60
2022-09-20T23:05:26.646Z,8.73
2022-09-20T23:07:53.243Z,9.30
2022-09-20T23:10:19.839Z,9.88
2022-09-20T23:12:50.029Z,8.75
2022-09-20T23:15:16.705Z,9.40
2022-09-20T23:17:43.275Z,9.57
2022-09-20T23:20:09.951Z,9.75
2022-09-20T23:22:36.517Z,8.55
2022-09-20T23:25:03.177Z,9.20
2022-09-20T23:27:29.799Z,11.07
2022-09-20T23:29:56.361Z,10.85
2022-09-20T23:32:22.984Z,8.60
2022-09-20T23:34:49.767Z,8.65
2022-09-20T23:37:16.537Z,9.82
2022-09-20T23:39:43.121Z,9.48
2022-09-20T23:42:09.726Z,9.00
2022-09-20T23:44:36.285Z,9.75
2022-09-20T23:47:02.882Z,8.45
2022-09-20T23:49:29.433Z,8.63
2022-09-20T23:51:56.028Z,8.38
2022-09-20T23:54:22.575Z,8.80
2022-09-20T23:56:49.665Z,8.13
2022-09-20T23:59:16.241Z,8.52
